Impacts TAF Board INFO
FOR SITUATIONAL AWARENESS. NOT TO BE USED FOR FLIGHT PLANNING PURPOSES.
IDs:

KBWI - Baltimore-Washington, MD, US

Issued at 2320 UTC 15 Aug 2018
Updated at 0307 UTC 16 Aug 2018
Potential Impact None Slight Moderate High
Time<<16/16Z 16/17Z 16/18Z 16/19Z 16/20Z 16/21Z 16/22Z 16/23Z 17/00Z 17/01Z 17/02Z 17/03Z 17/04Z>>
Type PRVL PRVL PRVL PRVL PRVL PRVL PRVL PRVL PRVL PRVL PRVL PRVL PRVL
VIS >6 >6 >6 >6 >6 >6 >6 >6 >6 >6 >6 >6 >6
CIG 250 250 250 250 250 250 250 250 250 250 -- -- --
Cover BKN BKN BKN BKN BKN BKN BKN BKN BKN BKN SCT SCT SCT
FltCat VFR VFR VFR VFR VFR VFR VFR VFR VFR VFR VFR VFR VFR
WX -- -- -- -- -- -- -- -- -- -- -- -- --
WDir 200 200 200 200 200 200 200 200 200 200 VRB VRB VRB
WSpd 6 6 6 6 6 6 6 6 6 6 3 3 3
WGst -- -- -- -- -- -- -- -- -- -- -- -- --

Raw TAF
KBWI 152320Z 1600/1706 27006KT P6SM SCT050 BKN250
  FM160200 VRB03KT P6SM SCT250
  FM161500 20006KT P6SM SCT050 BKN250
  FM170200 VRB03KT P6SM SCT250


METAR Board
Radar Display
Forecast Discussion

FOR SITUATIONAL AWARENESS. NOT TO BE USED FOR FLIGHT PLANNING PURPOSES.